createdAt,value
2022-08-14T00:02:01.484Z,17.80
2022-08-14T00:04:35.638Z,17.70
2022-08-14T00:07:10.901Z,17.60
2022-08-14T00:09:55.197Z,17.60
2022-08-14T00:12:33.658Z,17.60
2022-08-14T00:15:07.698Z,17.60
2022-08-14T00:17:38.216Z,17.50
2022-08-14T00:20:23.311Z,17.40
2022-08-14T00:22:57.706Z,17.40
2022-08-14T00:25:41.804Z,17.30
2022-08-14T00:28:15.183Z,17.30
2022-08-14T00:30:46.137Z,17.30
2022-08-14T00:33:15.319Z,17.30
2022-08-14T00:36:35.670Z,17.40
2022-08-14T00:38:35.207Z,17.30
2022-08-14T00:41:05.169Z,17.30
2022-08-14T00:43:33.305Z,17.30
2022-08-14T00:46:05.342Z,17.20
2022-08-14T00:48:36.879Z,17.20
2022-08-14T00:51:08.906Z,17.20
2022-08-14T00:53:37.685Z,17.10
2022-08-14T00:56:08.432Z,17.10
2022-08-14T00:58:38.924Z,17.10
2022-08-14T01:01:16.742Z,17.00
2022-08-14T01:03:45.612Z,16.90
2022-08-14T01:06:19.181Z,16.90
2022-08-14T01:08:51.520Z,16.80
2022-08-14T01:11:31.665Z,16.80
2022-08-14T01:14:04.959Z,16.80
2022-08-14T01:16:53.226Z,16.80
2022-08-14T01:19:41.779Z,16.80
2022-08-14T01:22:13.321Z,16.80
2022-08-14T01:24:47.342Z,16.90
2022-08-14T01:27:16.129Z,16.90
2022-08-14T01:30:03.581Z,16.90
2022-08-14T01:32:35.315Z,16.90
2022-08-14T01:35:18.447Z,16.90
2022-08-14T01:37:58.665Z,16.90
2022-08-14T01:40:36.998Z,16.90
2022-08-14T01:43:13.153Z,16.90
2022-08-14T01:45:41.798Z,16.90
2022-08-14T01:48:13.350Z,16.80
2022-08-14T01:50:42.764Z,16.80
2022-08-14T01:53:13.843Z,16.80
2022-08-14T01:55:42.565Z,16.70
2022-08-14T01:58:19.980Z,16.70
2022-08-14T02:00:54.689Z,16.60
2022-08-14T02:03:24.567Z,16.60
2022-08-14T02:05:59.899Z,16.60
2022-08-14T02:08:34.820Z,16.60
2022-08-14T02:11:22.530Z,16.60
2022-08-14T02:13:52.659Z,16.50
2022-08-14T02:16:24.186Z,16.50
2022-08-14T02:18:55.425Z,16.50
2022-08-14T02:21:23.718Z,16.40
2022-08-14T02:23:54.366Z,16.50
2022-08-14T02:26:29.222Z,16.30
2022-08-14T02:29:03.238Z,16.20
2022-08-14T02:31:41.993Z,16.20
2022-08-14T02:34:14.765Z,16.20
2022-08-14T02:37:06.122Z,16.10
2022-08-14T02:39:38.988Z,16.10
2022-08-14T02:42:13.187Z,16.20
2022-08-14T02:44:43.004Z,16.20
2022-08-14T02:47:15.148Z,16.20
2022-08-14T02:49:50.684Z,16.20
2022-08-14T02:52:56.654Z,16.20
2022-08-14T02:55:15.575Z,16.20
2022-08-14T02:57:51.814Z,16.10
2022-08-14T03:00:26.146Z,16.10
2022-08-14T03:02:58.696Z,16.10
2022-08-14T03:05:36.236Z,16.10
2022-08-14T03:08:06.207Z,16.10
2022-08-14T03:10:41.902Z,16.10
2022-08-14T03:13:19.345Z,16.10
2022-08-14T03:15:51.039Z,16.10
2022-08-14T03:18:31.277Z,16.10
2022-08-14T03:21:00.530Z,16.00
2022-08-14T03:23:28.647Z,15.90
2022-08-14T03:25:58.335Z,15.80
2022-08-14T03:28:33.458Z,15.80
2022-08-14T03:31:01.808Z,15.70
2022-08-14T03:33:37.956Z,15.70
2022-08-14T03:37:38.964Z,15.60
2022-08-14T03:39:16.003Z,15.60
2022-08-14T03:41:48.823Z,15.60
2022-08-14T03:45:26.102Z,15.60
2022-08-14T03:47:05.435Z,15.60
2022-08-14T03:49:34.060Z,15.50
2022-08-14T03:52:07.680Z,15.50
2022-08-14T03:54:52.484Z,15.50
2022-08-14T03:57:22.914Z,15.50
2022-08-14T03:59:52.074Z,15.50
2022-08-14T04:02:32.544Z,15.50
2022-08-14T04:05:11.662Z,15.50
2022-08-14T04:07:41.500Z,15.50
2022-08-14T04:10:17.647Z,15.50
2022-08-14T04:13:03.576Z,15.40
2022-08-14T04:15:55.760Z,15.30
2022-08-14T04:18:20.434Z,15.20
2022-08-14T04:20:51.504Z,15.10
2022-08-14T04:23:23.626Z,15.10
2022-08-14T04:25:57.276Z,15.10
2022-08-14T04:29:07.932Z,15.20
2022-08-14T04:31:15.531Z,15.20
2022-08-14T04:33:43.967Z,15.20
2022-08-14T04:36:15.933Z,15.20
2022-08-14T04:39:02.705Z,15.20
2022-08-14T04:41:48.327Z,15.30
2022-08-14T04:44:26.508Z,15.40
2022-08-14T04:47:21.841Z,15.50
2022-08-14T04:49:57.072Z,15.60
2022-08-14T04:52:25.870Z,15.70
2022-08-14T04:54:54.704Z,15.70
2022-08-14T04:57:23.359Z,15.70
2022-08-14T04:59:53.266Z,15.80
2022-08-14T05:02:25.577Z,15.90
2022-08-14T05:04:57.427Z,15.90
2022-08-14T05:07:47.048Z,15.90
2022-08-14T05:10:16.549Z,16.00
2022-08-14T05:13:14.151Z,16.00
2022-08-14T05:15:40.180Z,16.10
2022-08-14T05:18:17.667Z,16.10
2022-08-14T05:21:55.481Z,16.20
2022-08-14T05:23:51.932Z,16.30
2022-08-14T05:26:22.179Z,16.20
2022-08-14T05:28:50.364Z,16.20
2022-08-14T05:31:21.093Z,16.10
2022-08-14T05:33:56.427Z,16.10
2022-08-14T05:36:27.010Z,16.10
2022-08-14T05:38:55.379Z,16.00
2022-08-14T05:41:23.480Z,16.10
2022-08-14T05:44:08.070Z,16.10
2022-08-14T05:46:37.505Z,16.20
2022-08-14T05:49:05.642Z,16.20
2022-08-14T05:51:37.085Z,16.20
2022-08-14T05:54:13.678Z,16.40
2022-08-14T05:56:55.163Z,16.70
2022-08-14T05:59:36.357Z,16.90
2022-08-14T06:02:06.531Z,17.10
2022-08-14T06:04:34.636Z,17.30
2022-08-14T06:07:03.622Z,17.80
2022-08-14T06:09:35.738Z,18.30
2022-08-14T06:12:09.138Z,18.60
2022-08-14T06:14:37.177Z,18.70
2022-08-14T06:17:08.221Z,19.00
2022-08-14T06:19:36.262Z,19.20
2022-08-14T06:22:04.588Z,19.40
2022-08-14T06:24:34.732Z,19.80
2022-08-14T06:27:06.115Z,20.10
2022-08-14T06:29:38.270Z,20.40
2022-08-14T06:32:36.950Z,20.80
2022-08-14T06:35:09.492Z,21.10
2022-08-14T06:37:42.420Z,21.60
2022-08-14T06:40:25.668Z,21.90
2022-08-14T06:42:56.499Z,22.10
2022-08-14T06:45:26.157Z,22.60
2022-08-14T06:47:54.805Z,23.30
2022-08-14T06:50:27.936Z,23.90
2022-08-14T06:52:56.823Z,24.70
2022-08-14T06:55:27.816Z,25.50
2022-08-14T06:57:58.124Z,26.40
2022-08-14T07:00:30.396Z,27.10
2022-08-14T07:03:16.570Z,27.70
2022-08-14T07:05:58.293Z,28.10
2022-08-14T07:08:29.438Z,28.20
2022-08-14T07:11:00.576Z,28.40
2022-08-14T07:13:30.585Z,28.80
2022-08-14T07:16:00.462Z,29.10
2022-08-14T07:18:29.465Z,28.80
2022-08-14T07:20:59.260Z,29.10
2022-08-14T07:23:27.670Z,29.20
2022-08-14T07:25:59.829Z,29.10
2022-08-14T07:28:28.790Z,29.20
2022-08-14T07:31:05.172Z,29.00
2022-08-14T07:33:34.778Z,28.50
2022-08-14T07:36:26.576Z,28.60
2022-08-14T07:38:54.778Z,28.90
2022-08-14T07:41:24.026Z,28.30
2022-08-14T07:43:55.911Z,28.10
2022-08-14T07:46:28.470Z,27.30
2022-08-14T07:48:58.112Z,27.50
2022-08-14T07:51:34.201Z,28.10
2022-08-14T07:54:09.731Z,28.90
2022-08-14T07:56:47.935Z,29.40
2022-08-14T07:59:20.708Z,29.80
2022-08-14T08:02:09.965Z,30.30
2022-08-14T08:04:49.562Z,30.70
2022-08-14T08:07:19.092Z,31.10
2022-08-14T08:09:53.356Z,31.10
2022-08-14T08:12:26.187Z,31.90
2022-08-14T08:15:07.027Z,32.80
2022-08-14T08:17:42.355Z,33.80
2022-08-14T08:20:16.784Z,34.00
2022-08-14T08:22:55.577Z,34.50
2022-08-14T08:25:24.827Z,34.10
2022-08-14T08:27:56.673Z,34.90
2022-08-14T08:30:25.035Z,34.90
2022-08-14T08:32:53.645Z,35.90
2022-08-14T08:35:22.248Z,36.90
2022-08-14T08:38:01.181Z,37.40
2022-08-14T08:40:35.790Z,37.80
2022-08-14T08:43:10.936Z,38.70
2022-08-14T08:45:39.210Z,39.10
2022-08-14T08:48:20.632Z,39.80
2022-08-14T08:50:55.724Z,40.40
2022-08-14T08:53:25.106Z,40.70
2022-08-14T08:55:53.088Z,41.20
2022-08-14T08:58:25.253Z,41.40
2022-08-14T09:00:54.877Z,41.70
2022-08-14T09:03:25.645Z,42.00
2022-08-14T09:05:57.037Z,42.30
2022-08-14T09:08:31.574Z,41.80
2022-08-14T09:11:02.240Z,40.60
2022-08-14T09:13:33.246Z,39.70
2022-08-14T09:16:18.615Z,39.60
2022-08-14T09:18:48.043Z,39.00
2022-08-14T09:21:16.483Z,38.70
2022-08-14T09:24:25.955Z,39.20
2022-08-14T09:26:37.502Z,39.20
2022-08-14T09:29:10.444Z,39.40
2022-08-14T09:31:42.657Z,39.40
2022-08-14T09:34:27.165Z,39.70
2022-08-14T09:37:17.138Z,39.70
2022-08-14T09:39:53.767Z,40.00
2022-08-14T09:42:34.286Z,40.10
2022-08-14T09:45:08.982Z,40.20
2022-08-14T09:47:49.186Z,40.50
2022-08-14T09:50:21.217Z,41.00
2022-08-14T09:52:56.826Z,41.00
2022-08-14T09:55:27.925Z,41.30
2022-08-14T09:58:08.485Z,41.30
2022-08-14T10:00:44.693Z,41.30
2022-08-14T10:03:12.987Z,41.30
2022-08-14T10:05:41.254Z,41.50
2022-08-14T10:08:25.579Z,41.30
2022-08-14T10:11:02.452Z,41.40
2022-08-14T10:13:43.297Z,41.40
2022-08-14T10:16:25.837Z,41.40
2022-08-14T10:19:09.473Z,41.40
2022-08-14T10:21:58.786Z,41.40
2022-08-14T10:24:36.435Z,41.40
2022-08-14T10:27:17.118Z,41.00
2022-08-14T10:29:48.733Z,40.70
2022-08-14T10:32:17.991Z,40.50
2022-08-14T10:35:05.353Z,40.50
2022-08-14T10:37:39.953Z,40.30
2022-08-14T10:40:10.910Z,40.50
2022-08-14T10:42:58.243Z,40.30
2022-08-14T10:45:34.051Z,40.70
2022-08-14T10:48:35.496Z,41.20
2022-08-14T10:51:04.846Z,41.20
2022-08-14T10:53:39.852Z,41.40
2022-08-14T10:56:21.745Z,41.40
2022-08-14T10:59:03.663Z,41.50
2022-08-14T11:01:32.466Z,41.70
2022-08-14T11:04:07.424Z,41.80
2022-08-14T11:06:36.627Z,41.60
2022-08-14T11:09:12.660Z,41.50
2022-08-14T11:11:45.197Z,41.30
2022-08-14T11:14:22.462Z,41.30
2022-08-14T11:16:53.584Z,41.40
2022-08-14T11:19:25.129Z,41.20
2022-08-14T11:21:55.561Z,40.80
2022-08-14T11:24:50.821Z,40.90
2022-08-14T11:27:18.938Z,40.40
2022-08-14T11:29:52.805Z,40.60
2022-08-14T11:32:29.277Z,40.80
2022-08-14T11:34:58.138Z,41.00
2022-08-14T11:37:36.463Z,41.10
2022-08-14T11:40:16.450Z,41.30
2022-08-14T11:42:59.680Z,41.00
2022-08-14T11:45:32.862Z,40.70
2022-08-14T11:49:02.326Z,41.10
2022-08-14T11:51:13.017Z,41.20
2022-08-14T11:53:44.675Z,41.10
2022-08-14T11:56:13.810Z,40.70
2022-08-14T11:58:42.418Z,40.50
2022-08-14T12:01:11.982Z,40.30
2022-08-14T12:03:46.582Z,40.10
2022-08-14T12:06:29.639Z,39.90
2022-08-14T12:09:08.741Z,39.80
2022-08-14T12:11:47.355Z,39.70
2022-08-14T12:14:30.551Z,39.70
2022-08-14T12:17:12.489Z,39.80
2022-08-14T12:19:59.138Z,39.70
2022-08-14T12:22:34.507Z,39.90
2022-08-14T12:25:07.133Z,40.10
2022-08-14T12:27:52.526Z,40.30
2022-08-14T12:30:37.360Z,40.60
2022-08-14T12:33:24.109Z,40.90
2022-08-14T12:35:56.476Z,41.20
2022-08-14T12:38:33.609Z,41.40
2022-08-14T12:41:06.483Z,41.80
2022-08-14T12:43:45.193Z,41.90
2022-08-14T12:46:27.466Z,42.00
2022-08-14T12:48:59.292Z,42.10
2022-08-14T12:51:28.095Z,41.90
2022-08-14T12:53:59.446Z,41.50
2022-08-14T12:56:32.989Z,41.80
2022-08-14T12:59:02.746Z,41.90
2022-08-14T13:01:59.819Z,41.80
2022-08-14T13:04:21.698Z,41.70
2022-08-14T13:06:52.894Z,41.40
2022-08-14T13:09:21.318Z,41.20
2022-08-14T13:11:58.352Z,40.80
2022-08-14T13:14:29.681Z,40.10
2022-08-14T13:16:58.859Z,39.60
2022-08-14T13:19:28.609Z,39.40
2022-08-14T13:22:05.542Z,39.20
2022-08-14T13:24:34.802Z,39.20
2022-08-14T13:27:04.960Z,39.10
2022-08-14T13:29:37.994Z,39.50
2022-08-14T13:32:09.338Z,39.60
2022-08-14T13:34:40.713Z,39.70
2022-08-14T13:37:09.034Z,39.50
2022-08-14T13:39:37.689Z,39.40
2022-08-14T13:42:10.980Z,39.30
2022-08-14T13:44:42.981Z,39.00
2022-08-14T13:47:11.309Z,38.80
2022-08-14T13:49:56.803Z,38.80
2022-08-14T13:52:52.091Z,38.80
2022-08-14T13:55:16.819Z,38.40
2022-08-14T13:57:49.376Z,38.20
2022-08-14T14:00:21.744Z,37.70
2022-08-14T14:03:01.037Z,37.30
2022-08-14T14:05:53.190Z,37.20
2022-08-14T14:08:45.650Z,36.90
2022-08-14T14:11:09.751Z,36.80
2022-08-14T14:13:44.828Z,36.60
2022-08-14T14:16:14.973Z,36.40
2022-08-14T14:18:43.941Z,36.40
2022-08-14T14:21:18.041Z,36.20
2022-08-14T14:23:49.825Z,36.10
2022-08-14T14:26:23.117Z,35.80
2022-08-14T14:28:52.454Z,35.60
2022-08-14T14:31:24.146Z,35.50
2022-08-14T14:33:59.174Z,35.50
2022-08-14T14:36:29.543Z,35.50
2022-08-14T14:38:58.851Z,35.40
2022-08-14T14:41:37.586Z,35.30
2022-08-14T14:44:09.257Z,35.30
2022-08-14T14:46:42.027Z,35.20
2022-08-14T14:49:14.835Z,35.00
2022-08-14T14:51:46.597Z,34.90
2022-08-14T14:54:31.164Z,34.90
2022-08-14T14:57:08.970Z,34.80
2022-08-14T14:59:39.346Z,34.60
2022-08-14T15:02:09.509Z,34.50
2022-08-14T15:04:38.384Z,34.40
2022-08-14T15:07:08.016Z,34.30
2022-08-14T15:09:36.030Z,34.20
2022-08-14T15:12:05.526Z,34.10
2022-08-14T15:14:54.808Z,34.00
2022-08-14T15:17:28.616Z,34.00
2022-08-14T15:20:05.129Z,34.00
2022-08-14T15:22:35.567Z,34.00
2022-08-14T15:25:03.690Z,34.10
2022-08-14T15:27:31.708Z,34.10
2022-08-14T15:30:00.678Z,34.10
2022-08-14T15:32:29.232Z,34.20
2022-08-14T15:34:58.207Z,34.20
2022-08-14T15:37:26.221Z,34.40
2022-08-14T15:40:03.408Z,34.30
2022-08-14T15:42:39.461Z,34.30
2022-08-14T15:45:10.240Z,34.30
2022-08-14T15:47:41.622Z,34.30
2022-08-14T15:50:13.026Z,34.20
2022-08-14T15:52:44.753Z,34.10
2022-08-14T15:55:15.801Z,34.00
2022-08-14T15:58:01.980Z,33.90
2022-08-14T16:00:51.666Z,33.80
2022-08-14T16:03:27.832Z,33.70
2022-08-14T16:06:04.044Z,33.60
2022-08-14T16:08:32.032Z,33.50
2022-08-14T16:11:02.600Z,33.30
2022-08-14T16:13:42.235Z,33.40
2022-08-14T16:16:47.138Z,33.30
2022-08-14T16:19:00.933Z,33.10
2022-08-14T16:21:31.599Z,33.00
2022-08-14T16:24:01.008Z,32.90
2022-08-14T16:26:33.089Z,32.80
2022-08-14T16:29:05.441Z,32.60
2022-08-14T16:31:35.927Z,32.50
2022-08-14T16:34:45.014Z,32.40
2022-08-14T16:36:53.558Z,32.40
2022-08-14T16:39:22.487Z,32.40
2022-08-14T16:41:52.586Z,32.40
2022-08-14T16:44:22.136Z,32.30
2022-08-14T16:47:02.678Z,32.30
2022-08-14T16:50:03.118Z,32.20
2022-08-14T16:52:25.435Z,32.10
2022-08-14T16:55:08.201Z,32.00
2022-08-14T16:57:47.509Z,31.90
2022-08-14T17:00:33.075Z,31.70
2022-08-14T17:03:12.039Z,31.50
2022-08-14T17:05:42.952Z,31.40
2022-08-14T17:08:42.825Z,31.20
2022-08-14T17:11:09.749Z,31.10
2022-08-14T17:13:59.347Z,31.00
2022-08-14T17:16:31.011Z,30.90
2022-08-14T17:19:01.682Z,30.70
2022-08-14T17:21:37.380Z,30.60
2022-08-14T17:24:58.201Z,30.50
2022-08-14T17:26:55.504Z,30.40
2022-08-14T17:29:29.556Z,30.20
2022-08-14T17:32:02.045Z,29.90
2022-08-14T17:34:44.507Z,29.80
2022-08-14T17:37:24.266Z,29.70
2022-08-14T17:40:00.583Z,29.50
2022-08-14T17:42:43.543Z,29.40
2022-08-14T17:45:12.994Z,29.20
2022-08-14T17:47:43.359Z,28.90
2022-08-14T17:50:59.468Z,28.70
2022-08-14T17:53:03.653Z,28.50
2022-08-14T17:56:01.892Z,28.40
2022-08-14T17:58:26.555Z,28.20
2022-08-14T18:00:57.826Z,28.20
2022-08-14T18:03:50.036Z,28.10
2022-08-14T18:06:39.988Z,28.00
2022-08-14T18:09:25.247Z,27.90
2022-08-14T18:11:55.481Z,27.90
2022-08-14T18:14:31.884Z,27.80
2022-08-14T18:17:03.334Z,27.70
2022-08-14T18:19:34.486Z,27.60
2022-08-14T18:22:05.792Z,27.50
2022-08-14T18:24:53.861Z,27.20
2022-08-14T18:27:23.701Z,27.20
2022-08-14T18:29:54.614Z,27.00
2022-08-14T18:32:47.081Z,26.90
2022-08-14T18:35:23.675Z,26.80
2022-08-14T18:38:26.306Z,26.70
2022-08-14T18:41:21.737Z,26.50
2022-08-14T18:43:59.353Z,26.40
2022-08-14T18:46:36.886Z,26.30
2022-08-14T18:49:17.346Z,26.20
2022-08-14T18:51:46.988Z,26.10
2022-08-14T18:54:29.989Z,26.00
2022-08-14T18:57:02.071Z,25.90
2022-08-14T18:59:35.647Z,25.90
2022-08-14T19:02:22.666Z,25.80
2022-08-14T19:05:02.353Z,25.80
2022-08-14T19:07:33.857Z,25.70
2022-08-14T19:10:03.022Z,25.70
2022-08-14T19:12:49.904Z,25.60
2022-08-14T19:15:20.600Z,25.60
2022-08-14T19:18:10.658Z,25.60
2022-08-14T19:20:52.922Z,25.50
2022-08-14T19:23:22.535Z,25.50
2022-08-14T19:25:57.918Z,25.50
2022-08-14T19:28:31.926Z,25.40
2022-08-14T19:31:21.090Z,25.40
2022-08-14T19:33:53.718Z,25.30
2022-08-14T19:36:31.837Z,25.30
2022-08-14T19:39:12.365Z,25.30
2022-08-14T19:41:41.250Z,25.30
2022-08-14T19:44:20.967Z,25.30
2022-08-14T19:47:06.194Z,25.30
2022-08-14T19:50:30.216Z,25.30
2022-08-14T19:52:32.360Z,25.30
2022-08-14T19:55:15.645Z,25.30
2022-08-14T19:57:43.674Z,25.30
2022-08-14T20:00:29.352Z,25.30
2022-08-14T20:03:10.154Z,25.30
2022-08-14T20:05:45.491Z,25.30
2022-08-14T20:10:58.894Z,25.30
2022-08-14T20:11:20.580Z,25.30
2022-08-14T20:14:10.290Z,25.30
2022-08-14T20:16:39.883Z,25.30
2022-08-14T20:19:12.020Z,25.20
2022-08-14T20:21:58.406Z,25.20
2022-08-14T20:24:31.684Z,25.20
2022-08-14T20:27:34.125Z,25.20
2022-08-14T20:30:34.089Z,25.20
2022-08-14T20:33:07.667Z,25.20
2022-08-14T20:35:42.662Z,25.20
2022-08-14T20:38:29.247Z,25.10
2022-08-14T20:41:01.619Z,25.10
2022-08-14T20:43:53.086Z,25.20
2022-08-14T20:46:23.570Z,25.10
2022-08-14T20:48:59.639Z,25.10
2022-08-14T20:51:36.557Z,25.10
2022-08-14T20:54:06.694Z,25.00
2022-08-14T20:56:37.712Z,24.90
2022-08-14T20:59:17.565Z,24.90
2022-08-14T21:01:51.681Z,24.90
2022-08-14T21:04:26.515Z,24.90
2022-08-14T21:07:33.778Z,24.80
2022-08-14T21:10:06.208Z,24.80
2022-08-14T21:12:35.165Z,24.80
2022-08-14T21:15:11.090Z,24.80
2022-08-14T21:17:47.288Z,24.70
2022-08-14T21:20:25.467Z,24.70
2022-08-14T21:22:56.591Z,24.70
2022-08-14T21:25:28.933Z,24.70
2022-08-14T21:28:00.994Z,24.70
2022-08-14T21:30:51.849Z,24.70
2022-08-14T21:33:21.695Z,24.60
2022-08-14T21:35:55.441Z,24.60
2022-08-14T21:38:33.451Z,24.60
2022-08-14T21:41:42.420Z,24.60
2022-08-14T21:44:05.229Z,24.60
2022-08-14T21:46:47.730Z,24.60
2022-08-14T21:49:21.072Z,24.60
2022-08-14T21:52:00.991Z,24.60
2022-08-14T21:54:49.544Z,24.50
2022-08-14T21:57:56.116Z,24.50
2022-08-14T22:00:35.802Z,24.40
2022-08-14T22:03:04.900Z,24.30
2022-08-14T22:05:34.447Z,24.10
2022-08-14T22:08:04.129Z,24.00
2022-08-14T22:10:35.060Z,24.00
2022-08-14T22:13:03.358Z,23.90
2022-08-14T22:15:33.381Z,23.90
2022-08-14T22:18:04.300Z,23.80
2022-08-14T22:20:34.821Z,23.80
2022-08-14T22:23:04.730Z,23.70
2022-08-14T22:25:34.525Z,23.50
2022-08-14T22:28:10.446Z,23.50
2022-08-14T22:30:38.980Z,23.40
2022-08-14T22:33:13.459Z,23.30
2022-08-14T22:35:43.409Z,23.20
2022-08-14T22:38:37.602Z,23.20
2022-08-14T22:41:25.839Z,23.10
2022-08-14T22:43:48.990Z,23.00
2022-08-14T22:46:20.099Z,22.90
2022-08-14T22:48:49.415Z,22.90
2022-08-14T22:51:20.218Z,22.80
2022-08-14T22:53:52.345Z,22.70
2022-08-14T22:56:22.083Z,22.70
2022-08-14T22:58:57.894Z,22.60
2022-08-14T23:01:57.202Z,22.50
2022-08-14T23:04:34.885Z,22.50
2022-08-14T23:07:14.523Z,22.50
2022-08-14T23:09:55.896Z,22.50
2022-08-14T23:12:31.812Z,22.50
2022-08-14T23:15:04.022Z,22.50
2022-08-14T23:17:39.531Z,22.40
2022-08-14T23:20:19.054Z,22.40
2022-08-14T23:22:51.565Z,22.40
2022-08-14T23:25:57.141Z,22.30
2022-08-14T23:28:34.309Z,22.30
2022-08-14T23:30:57.395Z,22.30
2022-08-14T23:33:28.797Z,22.20
2022-08-14T23:35:59.159Z,22.20
2022-08-14T23:38:30.847Z,22.20
2022-08-14T23:41:00.751Z,22.20
2022-08-14T23:43:31.047Z,22.20
2022-08-14T23:45:59.949Z,22.20
2022-08-14T23:48:28.739Z,22.20
2022-08-14T23:50:58.808Z,22.20
2022-08-14T23:53:48.280Z,22.20
2022-08-14T23:56:30.255Z,22.20
2022-08-14T23:59:01.141Z,22.20
